Time;durP1;ratioP1;P1;durP2;ratioP2;P2;SDS_P1;SDS_P2;PMS_P1;PMS_P2;Temp;Humidity;BMP_temperature;BMP_pressure;BME280_temperature;BME280_humidity;BME280_pressure;Samples;Min_cycle;Max_cycle;Signal;HPM_P1;HPM_P2
2021/05/15 00:00:11;;;;;;;6.77;1.47;;;;;;;11.06;100.00;95701.09;5077375;28;20748;-70
2021/05/15 00:02:37;;;;;;;3.57;1.47;;;;;;;11.10;100.00;95697.88;5076948;28;21218;-70
2021/05/15 00:05:06;;;;;;;3.07;1.43;;;;;;;11.16;100.00;95691.84;5076830;28;20573;-70
2021/05/15 00:07:32;;;;;;;4.67;1.60;;;;;;;11.12;100.00;95695.84;5076252;28;20199;-71
2021/05/15 00:09:58;;;;;;;4.30;1.50;;;;;;;11.05;100.00;95687.09;5077294;28;20223;-70
2021/05/15 00:12:25;;;;;;;2.13;1.20;;;;;;;11.02;100.00;95684.03;5076605;28;20740;-70
2021/05/15 00:14:52;;;;;;;5.73;1.30;;;;;;;11.07;100.00;95687.72;5077112;28;20203;-70
2021/05/15 00:17:18;;;;;;;4.03;1.40;;;;;;;11.07;100.00;95693.00;5075702;28;20670;-69
2021/05/15 00:19:44;;;;;;;2.47;1.30;;;;;;;11.17;100.00;95684.75;5074339;28;20203;-70
2021/05/15 00:22:11;;;;;;;1.70;1.37;;;;;;;11.12;100.00;95689.78;5077460;28;20284;-70
2021/05/15 00:24:37;;;;;;;4.17;1.30;;;;;;;11.00;100.00;95686.06;5076985;28;20852;-70
2021/05/15 00:27:03;;;;;;;1.90;1.10;;;;;;;11.15;100.00;95687.56;5076493;28;20200;-71
2021/05/15 00:29:30;;;;;;;2.40;1.30;;;;;;;11.02;100.00;95684.03;5076733;28;20200;-70
2021/05/15 00:31:56;;;;;;;1.63;1.27;;;;;;;10.93;100.00;95683.38;5077213;28;20215;-69
2021/05/15 00:34:22;;;;;;;1.90;1.10;;;;;;;10.93;100.00;95679.09;5076454;28;20211;-70
2021/05/15 00:36:48;;;;;;;2.57;1.10;;;;;;;11.00;100.00;95681.59;5076038;28;20207;-70
2021/05/15 00:39:14;;;;;;;2.13;1.10;;;;;;;11.05;100.00;95687.09;5076465;28;20540;-70
2021/05/15 00:41:40;;;;;;;3.30;1.20;;;;;;;11.03;100.00;95683.81;5076976;28;20342;-69
2021/05/15 00:44:14;;;;;;;5.53;1.57;;;;;;;10.97;100.00;95694.31;5076433;28;20208;-70
2021/05/15 00:46:43;;;;;;;2.83;0.90;;;;;;;10.93;100.00;95688.66;5076196;28;20208;-71
2021/05/15 00:49:09;;;;;;;3.33;1.20;;;;;;;10.92;100.00;95691.47;5076493;28;20204;-70
2021/05/15 00:51:36;;;;;;;2.00;1.10;;;;;;;10.88;100.00;95689.41;5076196;28;20235;-70
2021/05/15 00:54:03;;;;;;;2.00;1.20;;;;;;;10.91;100.00;95691.66;5076720;28;21135;-70
2021/05/15 00:56:29;;;;;;;4.30;1.17;;;;;;;10.81;100.00;95692.00;5076695;28;20211;-70
2021/05/15 00:58:55;;;;;;;2.17;1.07;;;;;;;10.74;100.00;95691.13;5076522;28;20200;-70
2021/05/15 01:01:21;;;;;;;2.00;1.10;;;;;;;10.80;100.00;95684.28;5076032;28;20259;-71
2021/05/15 01:03:48;;;;;;;3.40;1.13;;;;;;;10.74;100.00;95685.03;5077550;28;20204;-70
2021/05/15 01:06:14;;;;;;;1.90;0.90;;;;;;;10.72;100.00;95682.59;5075544;28;20275;-70
2021/05/15 01:08:44;;;;;;;2.03;1.03;;;;;;;10.66;100.00;95685.19;5076706;28;20208;-70
2021/05/15 01:11:10;;;;;;;5.80;1.00;;;;;;;10.73;100.00;95686.03;5075916;28;20223;-70
2021/05/15 01:13:36;;;;;;;1.30;0.90;;;;;;;10.72;100.00;95687.88;5076529;28;20265;-70
2021/05/15 01:16:03;;;;;;;1.33;1.00;;;;;;;10.72;100.00;95689.69;5075001;28;20199;-70
2021/05/15 01:18:29;;;;;;;4.17;2.00;;;;;;;10.75;100.00;95682.22;5074925;28;20200;-70
2021/05/15 01:20:59;;;;;;;1.93;1.50;;;;;;;10.65;100.00;95684.34;5079769;28;20220;-70
2021/05/15 01:23:25;;;;;;;3.57;1.30;;;;;;;10.66;100.00;95680.72;5079932;28;20222;-70
2021/05/15 01:25:51;;;;;;;3.30;1.10;;;;;;;10.67;100.00;95681.56;5079529;28;20200;-70
2021/05/15 01:28:17;;;;;;;1.47;1.10;;;;;;;10.73;100.00;95692.16;5080186;28;20737;-70
2021/05/15 01:30:43;;;;;;;2.13;1.20;;;;;;;10.74;100.00;95690.31;5079586;28;20242;-71
2021/05/15 01:33:09;;;;;;;2.90;0.97;;;;;;;10.66;100.00;95688.63;5080124;28;20204;-70
2021/05/15 01:35:35;;;;;;;2.80;1.13;;;;;;;10.70;100.00;95689.06;5079551;28;20211;-71
2021/05/15 01:38:02;;;;;;;1.43;1.00;;;;;;;10.75;100.00;95684.03;5079691;28;20208;-70
2021/05/15 01:40:28;;;;;;;1.17;1.00;;;;;;;10.70;100.00;95694.34;5079594;28;20231;-71
2021/05/15 01:42:54;;;;;;;1.43;1.00;;;;;;;10.62;100.00;95681.31;5079827;28;20569;-70
2021/05/15 01:45:20;;;;;;;1.10;1.00;;;;;;;10.59;100.00;95686.94;5079121;28;20333;-70
2021/05/15 01:47:46;;;;;;;1.50;0.90;;;;;;;10.57;100.00;95683.69;5079342;28;20218;-70
2021/05/15 01:50:14;;;;;;;1.40;0.93;;;;;;;10.55;100.00;95677.78;5079775;28;20223;-70
2021/05/15 01:52:40;;;;;;;2.17;1.10;;;;;;;10.50;100.00;95680.19;5079297;28;21289;-70
2021/05/15 01:55:14;;;;;;;1.03;0.80;;;;;;;10.52;100.00;95675.53;5078754;28;20200;-71
2021/05/15 01:57:40;;;;;;;3.67;0.93;;;;;;;10.55;100.00;95670.72;5079576;28;20208;-70
2021/05/15 02:00:07;;;;;;;1.87;1.20;;;;;;;10.54;100.00;95674.34;5079446;28;20243;-70
2021/05/15 02:02:33;;;;;;;1.93;1.20;;;;;;;10.47;100.00;95668.19;5079141;28;20230;-71
2021/05/15 02:04:59;;;;;;;2.80;1.03;;;;;;;10.40;100.00;95669.16;5079331;28;20318;-71
2021/05/15 02:07:26;;;;;;;3.23;1.27;;;;;;;10.53;100.00;95671.91;5078818;28;20682;-70
2021/05/15 02:09:52;;;;;;;1.93;0.90;;;;;;;10.50;100.00;95664.38;5078957;28;20210;-70
2021/05/15 02:12:19;;;;;;;1.33;0.90;;;;;;;10.52;100.00;95659.75;5078649;28;20219;-70
2021/05/15 02:14:44;;;;;;;2.67;1.20;;;;;;;10.39;100.00;95663.06;5080599;28;20219;-70
2021/05/15 02:17:10;;;;;;;1.57;1.00;;;;;;;10.42;100.00;95654.81;5078272;28;20617;-70
2021/05/15 02:19:36;;;;;;;1.63;1.10;;;;;;;10.50;100.00;95653.84;5076438;28;20204;-70
2021/05/15 02:22:02;;;;;;;5.60;0.90;;;;;;;10.48;100.00;95655.84;5078830;28;20274;-70
2021/05/15 02:24:28;;;;;;;5.57;1.50;;;;;;;10.52;100.00;95655.28;5079126;28;20199;-70
2021/05/15 02:26:54;;;;;;;1.93;1.07;;;;;;;10.52;100.00;95655.28;5074973;28;20272;-70
2021/05/15 02:29:21;;;;;;;1.93;0.90;;;;;;;10.48;100.00;95650.59;5078672;28;20290;-70
2021/05/15 02:31:47;;;;;;;2.67;1.10;;;;;;;10.48;100.00;95653.22;5078439;28;20219;-71
2021/05/15 02:34:13;;;;;;;1.60;1.20;;;;;;;10.47;100.00;95657.66;5078871;28;20210;-70
2021/05/15 02:36:39;;;;;;;1.97;1.10;;;;;;;10.46;100.00;95649.94;5078241;28;20203;-71
2021/05/15 02:39:05;;;;;;;2.50;1.10;;;;;;;10.41;100.00;95653.16;5078603;28;20680;-70
2021/05/15 02:41:31;;;;;;;2.40;1.07;;;;;;;10.41;100.00;95649.69;5078907;28;20591;-70
2021/05/15 02:43:57;;;;;;;1.40;1.10;;;;;;;10.40;100.00;95656.00;5078727;28;20287;-70
2021/05/15 02:46:24;;;;;;;1.80;1.30;;;;;;;10.24;100.00;95653.63;5078503;28;20210;-70
2021/05/15 02:48:50;;;;;;;1.00;0.90;;;;;;;10.26;100.00;95649.00;5078039;28;20204;-70
2021/05/15 02:51:16;;;;;;;2.00;1.00;;;;;;;10.26;100.00;95650.78;5078351;28;20792;-70
2021/05/15 02:53:42;;;;;;;3.20;1.13;;;;;;;10.26;100.00;95648.16;5078417;28;20208;-70
2021/05/15 02:56:08;;;;;;;2.20;0.93;;;;;;;10.30;100.00;95642.34;5078319;28;20218;-71
2021/05/15 02:58:34;;;;;;;1.37;1.00;;;;;;;10.28;100.00;95640.91;5077654;28;20200;-71
2021/05/15 03:01:00;;;;;;;1.53;0.87;;;;;;;10.18;100.00;95654.34;5078517;28;20338;-70
2021/05/15 03:03:27;;;;;;;1.60;0.97;;;;;;;10.12;100.00;95652.50;5077886;28;20684;-70
2021/05/15 03:05:53;;;;;;;1.87;1.00;;;;;;;10.14;100.00;95653.09;5076957;28;20203;-70
2021/05/15 03:08:19;;;;;;;2.13;1.20;;;;;;;10.07;100.00;95644.34;5078098;28;20295;-70
2021/05/15 03:10:45;;;;;;;2.57;1.10;;;;;;;10.10;100.00;95638.69;5078290;28;20223;-70
2021/05/15 03:13:11;;;;;;;2.13;1.00;;;;;;;10.10;100.00;95643.16;5077570;28;20285;-70
2021/05/15 03:15:37;;;;;;;2.23;1.03;;;;;;;10.01;100.00;95641.66;5077805;28;20322;-70
2021/05/15 03:18:03;;;;;;;1.57;0.90;;;;;;;9.98;100.00;95639.38;5074860;28;20322;-71
2021/05/15 03:20:30;;;;;;;4.60;1.10;;;;;;;9.96;100.00;95642.19;5077754;28;20219;-70
2021/05/15 03:22:56;;;;;;;1.57;1.13;;;;;;;9.95;100.00;95643.19;5077489;28;20223;-70
2021/05/15 03:25:22;;;;;;;1.13;1.00;;;;;;;9.96;100.00;95638.75;5077803;28;20286;-70
2021/05/15 03:27:49;;;;;;;1.10;0.90;;;;;;;9.80;100.00;95645.06;5077893;28;20289;-70
2021/05/15 03:30:16;;;;;;;2.97;1.10;;;;;;;9.75;100.00;95636.91;5077060;28;20580;-70
2021/05/15 03:32:42;;;;;;;1.80;0.97;;;;;;;9.72;100.00;95647.81;5077823;28;20200;-70
2021/05/15 03:35:11;;;;;;;2.83;1.10;;;;;;;9.68;100.00;95647.53;5077204;28;20203;-70
2021/05/15 03:37:38;;;;;;;2.17;1.13;;;;;;;9.70;100.00;95649.00;5077754;28;20207;-70
2021/05/15 03:40:06;;;;;;;6.80;1.20;;;;;;;9.70;100.00;95647.16;5077204;28;21237;-71
2021/05/15 03:42:32;;;;;;;1.33;1.20;;;;;;;9.68;100.00;95642.28;5077162;28;20230;-70
2021/05/15 03:44:58;;;;;;;3.07;1.47;;;;;;;9.67;100.00;95645.91;5077254;28;20200;-70
2021/05/15 03:47:25;;;;;;;1.30;1.03;;;;;;;9.67;100.00;95648.53;5076883;28;20204;-70
2021/05/15 03:49:51;;;;;;;3.57;0.97;;;;;;;9.67;100.00;95648.53;5077388;28;20199;-70
2021/05/15 03:52:16;;;;;;;1.17;1.03;;;;;;;9.62;100.00;95643.81;5077525;28;20218;-70
2021/05/15 03:54:43;;;;;;;2.67;1.00;;;;;;;9.57;100.00;95656.75;5077250;28;20665;-70
2021/05/15 03:57:09;;;;;;;0.90;0.80;;;;;;;9.60;100.00;95650.25;5077100;28;20200;-70
2021/05/15 03:59:35;;;;;;;0.93;0.90;;;;;;;9.56;100.00;95651.63;5077320;28;20976;-70
2021/05/15 04:02:01;;;;;;;2.07;1.07;;;;;;;9.54;100.00;95638.69;5076920;28;20224;-70
2021/05/15 04:04:27;;;;;;;2.13;1.07;;;;;;;9.53;100.00;95644.94;5076912;28;20291;-71
2021/05/15 04:06:53;;;;;;;1.47;0.70;;;;;;;9.64;100.00;95646.28;5076963;28;20230;-70
2021/05/15 04:09:19;;;;;;;5.53;1.13;;;;;;;9.64;100.00;95652.34;5077115;28;20214;-70
2021/05/15 04:11:46;;;;;;;108.87;46.40;;;;;;;9.51;100.00;95657.47;5076552;28;20236;-71
2021/05/15 04:14:25;;;;;;;68.60;31.70;;;;;;;9.54;100.00;95656.28;5077170;28;20200;-70
2021/05/15 04:17:02;;;;;;;11.57;5.70;;;;;;;9.58;100.00;95647.81;5075834;28;20862;-70
2021/05/15 04:19:29;;;;;;;3.57;2.30;;;;;;;9.67;100.00;95651.97;5073266;28;20209;-70
2021/05/15 04:21:55;;;;;;;2.73;1.70;;;;;;;9.72;100.00;95644.34;5076630;28;20227;-70
2021/05/15 04:24:25;;;;;;;3.13;1.30;;;;;;;9.73;100.00;95654.69;5076945;28;20746;-70
2021/05/15 04:26:53;;;;;;;1.87;1.07;;;;;;;9.70;100.00;95649.00;5076044;28;20298;-70
2021/05/15 04:29:19;;;;;;;2.17;1.20;;;;;;;9.53;100.00;95650.19;5076977;28;20575;-69
2021/05/15 04:31:45;;;;;;;1.53;1.43;;;;;;;9.70;100.00;95646.34;5076591;28;20716;-71
2021/05/15 04:34:11;;;;;;;3.90;1.67;;;;;;;9.72;100.00;95641.72;5076993;28;20200;-70
2021/05/15 04:36:37;;;;;;;5.93;1.27;;;;;;;9.68;100.00;95643.88;5076190;28;20206;-70
2021/05/15 04:39:03;;;;;;;4.10;1.17;;;;;;;9.69;100.00;95644.72;5077878;28;20581;-70
2021/05/15 04:41:29;;;;;;;2.30;1.30;;;;;;;9.61;100.00;95644.00;5076372;28;20269;-70
2021/05/15 04:43:56;;;;;;;2.70;1.30;;;;;;;9.71;100.00;95646.16;5076564;28;20199;-70
2021/05/15 04:46:22;;;;;;;2.73;1.40;;;;;;;9.79;100.00;95653.94;5076698;28;20222;-70
2021/05/15 04:48:48;;;;;;;2.50;1.53;;;;;;;9.86;100.00;95656.63;5076978;28;20278;-70
2021/05/15 04:51:14;;;;;;;2.33;1.97;;;;;;;9.84;100.00;95659.47;5076382;28;21163;-70
2021/05/15 04:53:40;;;;;;;2.77;1.67;;;;;;;9.75;100.00;95655.31;5080047;28;20299;-70
2021/05/15 04:56:08;;;;;;;1.87;1.50;;;;;;;9.87;100.00;95661.72;5079532;28;20721;-70
2021/05/15 04:58:34;;;;;;;3.20;1.50;;;;;;;9.81;100.00;95659.84;5080336;28;20208;-70
2021/05/15 05:01:01;;;;;;;2.20;1.50;;;;;;;9.89;100.00;95658.88;5080610;28;20226;-70
2021/05/15 05:03:27;;;;;;;4.23;1.37;;;;;;;9.95;100.00;95655.53;5080341;28;20220;-70
2021/05/15 05:05:53;;;;;;;4.40;1.67;;;;;;;9.88;100.00;95658.09;5080029;28;20519;-70
2021/05/15 05:08:19;;;;;;;5.27;1.73;;;;;;;9.81;100.00;95662.47;5080493;28;20852;-69
2021/05/15 05:10:45;;;;;;;5.93;1.90;;;;;;;9.89;100.00;95656.25;5080841;28;20324;-69
2021/05/15 05:13:11;;;;;;;3.97;1.73;;;;;;;9.90;100.00;95671.88;5079552;28;20741;-70
2021/05/15 05:15:37;;;;;;;2.50;1.40;;;;;;;9.91;100.00;95664.78;5079794;28;20203;-71
2021/05/15 05:18:04;;;;;;;4.73;1.60;;;;;;;9.99;100.00;95668.16;5077540;28;20199;-70
2021/05/15 05:20:30;;;;;;;5.07;1.50;;;;;;;9.99;100.00;95657.63;5080401;28;20239;-70
2021/05/15 05:22:56;;;;;;;6.53;3.53;;;;;;;9.93;100.00;95663.59;5079913;28;20224;-70
2021/05/15 05:25:22;;;;;;;4.40;2.50;;;;;;;10.00;100.00;95661.88;5079549;28;20204;-70
2021/05/15 05:27:49;;;;;;;4.77;2.00;;;;;;;10.08;100.00;95655.69;5079881;28;20208;-70
2021/05/15 05:30:17;;;;;;;1.73;1.60;;;;;;;10.09;100.00;95652.84;5079968;28;20784;-69
2021/05/15 05:32:43;;;;;;;8.13;1.77;;;;;;;10.10;100.00;95653.69;5079915;28;20204;-70
2021/05/15 05:35:11;;;;;;;3.27;1.47;;;;;;;10.11;100.00;95650.88;5079166;28;20199;-70
2021/05/15 05:37:38;;;;;;;2.53;1.57;;;;;;;10.18;100.00;95657.00;5079922;28;20200;-70
2021/05/15 05:40:06;;;;;;;3.23;1.63;;;;;;;10.11;100.00;95656.13;5079677;28;20249;-70
2021/05/15 05:42:32;;;;;;;2.00;1.63;;;;;;;10.23;100.00;95648.53;5079611;28;20223;-70
2021/05/15 05:44:59;;;;;;;2.07;1.40;;;;;;;10.33;100.00;95648.03;5079879;28;20207;-70
2021/05/15 05:47:24;;;;;;;2.70;1.33;;;;;;;10.30;100.00;95641.50;5079285;28;20211;-70
2021/05/15 05:49:50;;;;;;;1.90;1.47;;;;;;;10.37;100.00;95643.19;5078812;28;20291;-71
2021/05/15 05:52:18;;;;;;;1.70;1.20;;;;;;;10.45;100.00;95650.94;5079966;28;20231;-71
2021/05/15 05:54:43;;;;;;;3.83;1.30;;;;;;;10.57;100.00;95652.09;5079329;28;20253;-70
2021/05/15 05:57:10;;;;;;;2.10;1.30;;;;;;;10.70;99.60;95641.63;5078804;28;20196;-71
2021/05/15 05:59:36;;;;;;;2.20;1.40;;;;;;;10.84;100.00;95638.09;5079333;28;20204;-71
2021/05/15 06:02:02;;;;;;;1.53;1.10;;;;;;;10.91;99.48;95633.66;5079627;28;20227;-69
2021/05/15 06:04:28;;;;;;;4.23;1.33;;;;;;;10.96;98.35;95638.16;5078608;28;20211;-70
2021/05/15 06:06:54;;;;;;;6.37;1.40;;;;;;;10.91;96.39;95641.56;5078448;28;20291;-69
2021/05/15 06:09:20;;;;;;;4.70;1.13;;;;;;;10.97;98.11;95649.50;5079013;28;20204;-69
2021/05/15 06:11:47;;;;;;;2.13;1.30;;;;;;;10.91;96.73;95646.84;5079128;28;21829;-70
2021/05/15 06:14:13;;;;;;;2.70;1.27;;;;;;;10.76;97.21;95641.69;5078836;28;20241;-69
2021/05/15 06:16:39;;;;;;;2.67;1.27;;;;;;;10.92;98.64;95640.56;5078935;28;20200;-69
2021/05/15 06:19:05;;;;;;;2.03;1.20;;;;;;;10.91;96.58;95638.94;5076115;28;20196;-69
2021/05/15 06:21:31;;;;;;;2.77;1.40;;;;;;;10.98;96.15;95637.97;5079053;28;20860;-70
2021/05/15 06:23:57;;;;;;;1.93;1.40;;;;;;;11.14;96.82;95630.56;5078542;28;20196;-68
2021/05/15 06:26:25;;;;;;;1.73;1.23;;;;;;;11.08;95.79;95633.16;5078044;28;20214;-69
2021/05/15 06:28:51;;;;;;;2.37;1.20;;;;;;;11.03;94.06;95625.81;5078804;28;20200;-68
2021/05/15 06:31:17;;;;;;;1.87;1.10;;;;;;;11.07;93.73;95624.47;5077356;28;20224;-69
2021/05/15 06:33:43;;;;;;;1.90;1.00;;;;;;;11.08;95.55;95620.78;5078888;28;20200;-69
2021/05/15 06:36:09;;;;;;;3.57;1.13;;;;;;;11.23;92.46;95624.13;5078694;28;20199;-69
2021/05/15 06:38:35;;;;;;;3.27;1.03;;;;;;;11.38;92.50;95627.44;5077934;28;20203;-70
2021/05/15 06:41:02;;;;;;;2.30;1.37;;;;;;;11.58;93.42;95628.34;5078868;28;20639;-69
2021/05/15 06:43:28;;;;;;;1.67;0.80;;;;;;;11.65;90.41;95618.66;5078220;28;20636;-70
2021/05/15 06:45:54;;;;;;;2.00;1.00;;;;;;;11.82;90.55;95614.63;5077709;28;20203;-69
2021/05/15 06:48:20;;;;;;;1.50;0.97;;;;;;;11.95;90.82;95618.13;5078487;28;21072;-69
2021/05/15 06:50:46;;;;;;;2.57;1.23;;;;;;;11.94;87.62;95618.31;5078154;28;20318;-70
2021/05/15 06:53:12;;;;;;;1.10;0.90;;;;;;;11.85;85.90;95616.88;5078876;28;20196;-70
2021/05/15 06:55:38;;;;;;;2.17;1.10;;;;;;;11.84;87.59;95612.63;5077954;28;20246;-70
2021/05/15 06:58:05;;;;;;;1.90;1.10;;;;;;;11.83;87.87;95618.91;5078468;28;20282;-69
2021/05/15 07:00:33;;;;;;;3.57;1.20;;;;;;;12.01;89.26;95625.22;5078107;28;20227;-71
2021/05/15 07:02:59;;;;;;;1.60;1.00;;;;;;;12.20;87.58;95613.88;5078700;28;20223;-70
2021/05/15 07:05:25;;;;;;;1.00;0.80;;;;;;;12.18;83.69;95622.03;5077111;28;20226;-69
2021/05/15 07:07:51;;;;;;;3.08;1.20;;;;;;;12.28;86.30;95622.44;5077990;28;20199;-71
2021/05/15 07:10:17;;;;;;;2.23;1.00;;;;;;;12.50;86.19;95615.94;5078760;28;20228;-69
2021/05/15 07:12:43;;;;;;;2.97;1.37;;;;;;;12.51;81.90;95622.84;5077175;28;20860;-69
2021/05/15 07:15:10;;;;;;;3.38;0.90;;;;;;;12.51;79.74;95614.94;5077295;28;21056;-71
2021/05/15 07:17:37;;;;;;;2.13;0.88;;;;;;;12.62;80.39;95619.59;5077232;28;20207;-69
2021/05/15 07:20:04;;;;;;;1.83;0.85;;;;;;;12.73;81.56;95611.06;5075173;28;20223;-70
2021/05/15 07:22:31;;;;;;;1.23;0.93;;;;;;;12.90;81.41;95614.91;5077893;28;20253;-70
2021/05/15 07:24:58;;;;;;;1.80;0.82;;;;;;;12.95;77.26;95610.63;5078264;28;20273;-69
2021/05/15 07:27:27;;;;;;;1.58;0.80;;;;;;;12.98;76.31;95604.13;5076756;28;20204;-69
2021/05/15 07:29:53;;;;;;;1.20;0.97;;;;;;;13.26;75.63;95602.81;5077502;28;20598;-69
2021/05/15 07:32:19;;;;;;;2.47;1.00;;;;;;;13.40;77.20;95599.94;5077739;28;20210;-70
2021/05/15 07:34:47;;;;;;;2.38;1.23;;;;;;;13.72;75.53;95596.34;5077692;28;20933;-71
2021/05/15 07:37:13;;;;;;;3.78;1.20;;;;;;;13.77;73.77;95595.69;5076374;28;20204;-69
2021/05/15 07:39:39;;;;;;;1.40;0.80;;;;;;;13.77;72.29;95577.16;5077970;28;20199;-71
2021/05/15 07:42:06;;;;;;;2.45;1.20;;;;;;;13.87;71.60;95586.25;5077125;28;20245;-68
2021/05/15 07:44:32;;;;;;;2.53;1.10;;;;;;;14.05;71.69;95573.09;5077233;28;20215;-70
2021/05/15 07:46:58;;;;;;;4.57;0.90;;;;;;;14.25;72.22;95573.81;5076133;28;20207;-70
2021/05/15 07:49:24;;;;;;;3.75;1.20;;;;;;;14.21;72.43;95567.31;5077355;28;20199;-71
2021/05/15 07:51:52;;;;;;;1.95;1.00;;;;;;;14.30;69.29;95568.69;5077214;28;21165;-70
2021/05/15 07:54:19;;;;;;;1.52;0.65;;;;;;;14.09;70.32;95575.16;5077079;28;20206;-69
2021/05/15 07:56:45;;;;;;;2.13;0.63;;;;;;;13.69;69.88;95572.09;5076812;28;20208;-70
2021/05/15 07:59:11;;;;;;;0.95;0.50;;;;;;;13.75;69.57;95569.41;5077041;28;20650;-69
2021/05/15 08:01:37;;;;;;;1.02;0.60;;;;;;;13.71;69.25;95586.75;5077030;28;20226;-71
2021/05/15 08:04:04;;;;;;;2.65;0.52;;;;;;;13.65;69.29;95582.31;5077276;28;20277;-68
2021/05/15 08:06:30;;;;;;;1.70;0.60;;;;;;;13.54;70.88;95579.50;5076663;28;20257;-69
2021/05/15 08:08:57;;;;;;;1.92;0.70;;;;;;;13.37;69.21;95578.38;5076852;28;20572;-69
2021/05/15 08:11:23;;;;;;;1.33;0.70;;;;;;;13.32;70.10;95580.03;5077767;28;20231;-69
2021/05/15 08:13:49;;;;;;;1.42;0.65;;;;;;;13.21;72.19;95583.31;5077026;28;20202;-71
2021/05/15 08:16:16;;;;;;;3.22;1.80;;;;;;;13.20;71.34;95581.66;5076291;28;20207;-71
2021/05/15 08:18:42;;;;;;;1.98;0.95;;;;;;;13.11;70.08;95580.28;5073623;28;20208;-69
2021/05/15 08:21:09;;;;;;;3.70;0.70;;;;;;;13.16;71.49;95575.19;5076842;28;20231;-68
2021/05/15 08:23:35;;;;;;;1.50;0.98;;;;;;;13.43;72.14;95573.03;5076472;28;20247;-71
2021/05/15 08:26:03;;;;;;;2.15;0.70;;;;;;;13.68;69.05;95581.91;5076169;28;20200;-69
2021/05/15 08:28:29;;;;;;;2.90;0.70;;;;;;;13.96;69.54;95566.44;5081174;28;20203;-69
2021/05/15 08:30:55;;;;;;;0.70;0.70;;;;;;;14.07;68.10;95563.13;5083471;28;20349;-70
2021/05/15 08:33:21;;;;;;;1.13;0.60;;;;;;;14.43;68.12;95560.63;5083837;28;20278;-70
2021/05/15 08:35:47;;;;;;;1.85;0.80;;;;;;;14.46;69.66;95555.72;5082763;28;20625;-69
2021/05/15 08:38:13;;;;;;;2.25;0.63;;;;;;;14.64;69.24;95561.84;5082770;28;20704;-70
2021/05/15 08:40:40;;;;;;;1.98;0.65;;;;;;;14.71;66.62;95561.78;5082898;28;20230;-70
2021/05/15 08:43:07;;;;;;;3.67;0.80;;;;;;;14.79;63.72;95557.03;5082465;28;20226;-70
2021/05/15 08:45:34;;;;;;;2.65;0.80;;;;;;;15.00;65.97;95553.94;5082284;28;20204;-70
2021/05/15 08:48:02;;;;;;;0.82;0.60;;;;;;;15.19;61.07;95552.13;5082736;28;20196;-70
2021/05/15 08:50:30;;;;;;;1.73;0.57;;;;;;;15.44;62.92;95546.53;5083078;28;20227;-69
2021/05/15 08:52:57;;;;;;;0.55;0.55;;;;;;;15.47;62.18;95547.94;5082718;28;20362;-70
2021/05/15 08:55:26;;;;;;;2.22;0.70;;;;;;;15.61;64.18;95544.06;5082215;28;20211;-70
2021/05/15 08:57:52;;;;;;;1.02;0.60;;;;;;;15.42;59.82;95542.47;5082946;28;20207;-70
2021/05/15 09:00:21;;;;;;;1.20;0.68;;;;;;;15.44;61.24;95543.88;5082589;28;20355;-70
2021/05/15 09:02:50;;;;;;;1.42;0.77;;;;;;;15.32;62.84;95539.53;5082386;28;20223;-70
2021/05/15 09:05:18;;;;;;;0.80;0.80;;;;;;;15.52;61.79;95538.25;5081909;28;20222;-71
2021/05/15 09:07:49;;;;;;;1.13;0.63;;;;;;;15.56;59.38;95538.63;5082421;28;20677;-71
2021/05/15 09:10:18;;;;;;;1.80;0.40;;;;;;;15.59;59.09;95539.00;5082525;28;20796;-72
2021/05/15 09:12:44;;;;;;;2.03;0.60;;;;;;;15.51;58.62;95527.88;5081688;28;20689;-70
2021/05/15 09:15:11;;;;;;;1.27;0.63;;;;;;;15.10;59.88;95534.88;5081539;28;20953;-71
2021/05/15 09:17:45;;;;;;;2.22;0.50;;;;;;;15.18;58.74;95530.06;5082494;28;20207;-72
2021/05/15 09:20:22;;;;;;;1.23;0.70;;;;;;;15.56;61.47;95520.84;5079407;28;20234;-69
2021/05/15 09:22:48;;;;;;;1.23;0.70;;;;;;;15.67;58.46;95514.78;5082271;28;20233;-69
2021/05/15 09:25:15;;;;;;;1.08;0.68;;;;;;;15.59;59.61;95512.44;5082227;28;20208;-70
2021/05/15 09:27:41;;;;;;;0.70;0.70;;;;;;;15.80;60.26;95511.13;5082303;28;20211;-70
2021/05/15 09:30:09;;;;;;;1.13;0.70;;;;;;;15.49;57.62;95508.66;5082026;28;20219;-69
2021/05/15 09:32:35;;;;;;;2.05;0.55;;;;;;;15.56;55.99;95514.72;5076323;28;20577;-70
2021/05/15 09:35:05;;;;;;;2.10;0.43;;;;;;;15.42;56.46;95511.41;5081488;28;20215;-70
2021/05/15 09:37:33;;;;;;;1.48;0.60;;;;;;;15.47;55.38;95506.25;5081827;28;20419;-70
2021/05/15 09:40:10;;;;;;;1.33;0.50;;;;;;;15.33;57.87;95504.00;5078759;28;20873;-72
2021/05/15 09:42:48;;;;;;;1.85;0.90;;;;;;;15.31;59.50;95498.09;5080008;28;20227;-71
2021/05/15 09:45:19;;;;;;;1.88;0.55;;;;;;;15.81;58.33;95494.13;5078895;28;20207;-70
2021/05/15 09:47:56;;;;;;;0.63;0.63;;;;;;;15.68;57.76;95489.00;5079197;28;20203;-70
2021/05/15 09:50:26;;;;;;;1.30;0.60;;;;;;;16.02;56.72;95481.94;5080085;28;20222;-70
2021/05/15 09:53:06;;;;;;;4.00;0.70;;;;;;;16.43;61.80;95481.91;5080035;28;20196;-70
2021/05/15 09:55:32;;;;;;;2.05;0.80;;;;;;;16.77;56.35;95481.09;5078750;28;20214;-70
2021/05/15 09:57:58;;;;;;;1.33;0.70;;;;;;;16.45;54.14;95469.19;5079409;28;20199;-70
2021/05/15 10:00:24;;;;;;;1.73;0.60;;;;;;;16.07;53.31;95468.78;5079491;28;20238;-70
2021/05/15 10:02:54;;;;;;;0.93;0.60;;;;;;;16.09;56.37;95466.72;5079387;28;20555;-69
2021/05/15 10:05:21;;;;;;;2.17;0.60;;;;;;;16.30;59.43;95471.50;5079166;28;20208;-70
2021/05/15 10:07:48;;;;;;;0.60;0.50;;;;;;;16.50;53.30;95461.34;5079054;28;20207;-69
2021/05/15 10:10:14;;;;;;;0.50;0.50;;;;;;;16.51;52.54;95457.66;5079055;28;20230;-72
2021/05/15 10:12:41;;;;;;;1.67;0.60;;;;;;;16.62;53.08;95454.16;5078815;28;20212;-70
2021/05/15 10:15:09;;;;;;;0.98;0.57;;;;;;;16.72;55.51;95452.53;5078532;28;20192;-69
2021/05/15 10:17:35;;;;;;;1.52;0.70;;;;;;;17.32;58.37;95437.84;5078853;28;20203;-72
2021/05/15 10:20:04;;;;;;;0.77;0.77;;;;;;;17.35;55.58;95432.84;5076380;28;20211;-71
2021/05/15 10:22:36;;;;;;;1.83;0.70;;;;;;;17.04;55.27;95428.97;5079424;28;20223;-72
2021/05/15 10:25:09;;;;;;;1.55;0.70;;;;;;;17.18;53.43;95423.97;5078584;28;20206;-72
2021/05/15 10:27:36;;;;;;;2.85;1.40;;;;;;;17.16;52.37;95426.06;5078529;28;20200;-70
2021/05/15 10:30:11;;;;;;;1.15;0.70;;;;;;;16.86;53.72;95431.81;5078637;28;20661;-71
2021/05/15 10:32:52;;;;;;;0.90;0.50;;;;;;;17.07;52.93;95415.19;5079347;28;20199;-71
2021/05/15 10:35:27;;;;;;;1.42;0.63;;;;;;;17.13;53.37;95415.88;5077929;28;20204;-72
2021/05/15 10:38:02;;;;;;;1.55;0.80;;;;;;;17.01;53.92;95413.50;5078202;28;20290;-71
2021/05/15 10:40:30;;;;;;;2.03;0.90;;;;;;;16.31;53.13;95411.97;5078770;28;21079;-71
2021/05/15 10:43:01;;;;;;;2.28;0.50;;;;;;;15.74;55.63;95411.88;5078525;28;20226;-70
2021/05/15 10:45:34;;;;;;;2.10;0.60;;;;;;;16.09;56.83;95410.91;5077646;28;21138;-71
2021/05/15 10:48:12;;;;;;;1.88;0.60;;;;;;;16.64;54.50;95396.22;5078443;28;20196;-71
2021/05/15 10:50:48;;;;;;;2.17;0.80;;;;;;;17.20;54.50;95389.91;5078494;28;20235;-71
2021/05/15 10:53:19;;;;;;;0.40;0.40;;;;;;;17.25;53.98;95384.72;5077741;28;20616;-71
2021/05/15 10:56:01;;;;;;;2.78;0.50;;;;;;;17.15;53.93;95389.81;5077647;28;20967;-70
2021/05/15 10:58:38;;;;;;;3.65;0.70;;;;;;;17.24;50.45;95383.09;5078526;28;21016;-70
2021/05/15 11:01:09;;;;;;;0.98;0.50;;;;;;;16.98;51.24;95374.03;5077626;28;20215;-70
2021/05/15 11:03:35;;;;;;;3.03;0.57;;;;;;;17.37;55.03;95377.47;5078167;28;20342;-71
2021/05/15 11:06:12;;;;;;;0.68;0.50;;;;;;;17.41;49.98;95375.97;5077397;28;20814;-71
2021/05/15 11:08:39;;;;;;;0.57;0.50;;;;;;;16.98;50.46;95371.38;5077981;28;20569;-71
2021/05/15 11:11:09;;;;;;;2.90;0.60;;;;;;;17.50;49.71;95369.22;5076990;28;20231;-72
2021/05/15 11:13:45;;;;;;;7.32;0.77;;;;;;;18.08;51.68;95354.44;5077204;28;20672;-73
2021/05/15 11:16:12;;;;;;;0.70;0.50;;;;;;;17.72;46.27;95356.78;5077243;28;20211;-72
2021/05/15 11:18:38;;;;;;;1.33;0.40;;;;;;;17.68;47.63;95353.00;5074620;28;20204;-72
2021/05/15 11:21:06;;;;;;;1.10;0.60;;;;;;;17.19;49.14;95359.00;5078015;28;20219;-72
2021/05/15 11:23:35;;;;;;;0.77;0.40;;;;;;;17.15;50.29;95344.56;5078159;28;20322;-72
2021/05/15 11:26:03;;;;;;;1.02;0.50;;;;;;;17.78;50.98;95347.81;5076602;28;20387;-72
2021/05/15 11:28:30;;;;;;;1.58;0.57;;;;;;;17.91;48.88;95332.31;5078074;28;20220;-73
2021/05/15 11:30:57;;;;;;;1.05;0.50;;;;;;;18.63;46.74;95336.56;5077818;28;20239;-74